createdAt,value
2018-12-02T00:00:42.063Z,18.4
2018-12-02T00:01:42.035Z,18.39
2018-12-02T00:02:42.143Z,18.39
2018-12-02T00:03:42.065Z,18.39
2018-12-02T00:04:42.073Z,18.39
2018-12-02T00:05:42.182Z,18.38
2018-12-02T00:06:42.031Z,18.38
2018-12-02T00:07:42.999Z,18.38
2018-12-02T00:08:42.193Z,18.37
2018-12-02T00:09:41.990Z,18.38
2018-12-02T00:10:42.062Z,18.37
2018-12-02T00:11:42.102Z,18.36
2018-12-02T00:12:41.931Z,18.36
2018-12-02T00:13:41.892Z,18.36
2018-12-02T00:14:41.922Z,18.35
2018-12-02T00:15:42.171Z,18.35
2018-12-02T00:16:42.064Z,18.35
2018-12-02T00:17:41.914Z,18.35
2018-12-02T00:18:42.328Z,18.34
2018-12-02T00:19:41.893Z,18.34
2018-12-02T00:20:42.092Z,18.34
2018-12-02T00:21:41.834Z,18.34
2018-12-02T00:22:41.887Z,18.33
2018-12-02T00:23:42.259Z,18.33
2018-12-02T00:24:42.045Z,18.33
2018-12-02T00:25:42.575Z,18.33
2018-12-02T00:26:42.352Z,18.32
2018-12-02T00:27:42.311Z,18.31
2018-12-02T00:28:41.848Z,18.32
2018-12-02T00:29:42.102Z,18.31
2018-12-02T00:30:42.022Z,18.31
2018-12-02T00:31:42.726Z,18.3
2018-12-02T00:32:42.068Z,18.3
2018-12-02T00:33:41.996Z,18.3
2018-12-02T00:34:41.993Z,18.3
2018-12-02T00:35:42.299Z,18.29
2018-12-02T00:36:42.027Z,18.29
2018-12-02T00:37:41.939Z,18.29
2018-12-02T00:38:42.165Z,18.29
2018-12-02T00:39:41.843Z,18.29
2018-12-02T00:40:42.123Z,18.28
2018-12-02T00:41:42.061Z,18.27
2018-12-02T00:42:42.073Z,18.27
2018-12-02T00:43:42.054Z,18.25
2018-12-02T00:44:42.436Z,18.25
2018-12-02T00:45:41.923Z,18.26
2018-12-02T00:46:42.242Z,18.26
2018-12-02T00:47:42.074Z,18.25
2018-12-02T00:48:41.911Z,18.25
2018-12-02T00:49:41.975Z,18.24
2018-12-02T00:50:42.152Z,18.24
2018-12-02T00:51:41.899Z,18.23
2018-12-02T00:52:42.236Z,18.23
2018-12-02T00:53:41.828Z,18.23
2018-12-02T00:54:42.217Z,18.23
2018-12-02T00:55:42.005Z,18.23
2018-12-02T00:56:42.045Z,18.23
2018-12-02T00:57:42.154Z,18.23
2018-12-02T00:58:41.873Z,18.23
2018-12-02T00:59:41.988Z,18.22
2018-12-02T01:00:41.936Z,18.21
2018-12-02T01:01:42.169Z,18.21
2018-12-02T01:02:41.900Z,18.21
2018-12-02T01:03:41.787Z,18.2
2018-12-02T01:04:42.069Z,18.2
2018-12-02T01:05:41.987Z,18.19
2018-12-02T01:06:42.073Z,18.18
2018-12-02T01:07:41.859Z,18.19
2018-12-02T01:08:42.025Z,18.19
2018-12-02T01:09:42.052Z,18.18
2018-12-02T01:10:41.875Z,18.19
2018-12-02T01:11:41.802Z,18.18
2018-12-02T01:12:41.929Z,18.17
2018-12-02T01:13:42.102Z,18.17
2018-12-02T01:14:41.882Z,18.17
2018-12-02T01:15:42.098Z,18.17
2018-12-02T01:16:41.907Z,18.17
2018-12-02T01:17:42.088Z,18.16
2018-12-02T01:18:41.867Z,18.16
2018-12-02T01:19:42.177Z,18.15
2018-12-02T01:20:41.930Z,18.16
2018-12-02T01:21:41.853Z,18.16
2018-12-02T01:22:41.779Z,18.16
2018-12-02T01:23:41.904Z,18.16
2018-12-02T01:24:42.117Z,18.14
2018-12-02T01:25:42.164Z,18.15
2018-12-02T01:26:42.310Z,18.14
2018-12-02T01:27:41.933Z,18.13
2018-12-02T01:28:42.083Z,18.14
2018-12-02T01:29:41.827Z,18.14
2018-12-02T01:30:42.237Z,18.13
2018-12-02T01:31:41.929Z,18.14
2018-12-02T01:32:41.929Z,18.13
2018-12-02T01:33:42.222Z,18.14
2018-12-02T01:34:42.166Z,18.13
2018-12-02T01:35:41.980Z,18.12
2018-12-02T01:36:42.731Z,18.11
2018-12-02T01:37:41.957Z,18.12
2018-12-02T01:38:41.899Z,18.11
2018-12-02T01:39:41.796Z,18.1
2018-12-02T01:40:41.792Z,18.1
2018-12-02T01:41:41.910Z,18.1
2018-12-02T01:42:42.013Z,18.1
2018-12-02T01:43:41.819Z,18.1
2018-12-02T01:44:42.147Z,18.1
2018-12-02T01:45:42.096Z,18.1
2018-12-02T01:46:41.921Z,18.1
2018-12-02T01:47:41.807Z,18.09
2018-12-02T01:48:41.793Z,18.09
2018-12-02T01:49:42.042Z,18.09
2018-12-02T01:50:41.894Z,18.08
2018-12-02T01:51:42.278Z,18.08
2018-12-02T01:52:42.234Z,18.09
2018-12-02T01:53:42.341Z,18.09
2018-12-02T01:54:41.808Z,18.08
2018-12-02T01:55:42.022Z,18.08
2018-12-02T01:56:42.134Z,18.08
2018-12-02T01:57:42.241Z,18.07
2018-12-02T01:58:42.012Z,18.07
2018-12-02T01:59:41.882Z,18.07
2018-12-02T02:00:41.972Z,18.07
2018-12-02T02:01:42.163Z,18.06
2018-12-02T02:02:42.059Z,18.06
2018-12-02T02:03:41.881Z,18.06
2018-12-02T02:04:41.936Z,18.06
2018-12-02T02:05:42.219Z,18.05
2018-12-02T02:06:41.822Z,18.05
2018-12-02T02:07:41.943Z,18.04
2018-12-02T02:08:41.908Z,18.04
2018-12-02T02:09:42.229Z,18.04
2018-12-02T02:10:41.816Z,18.04
2018-12-02T02:11:41.807Z,18.04
2018-12-02T02:12:42.262Z,18.04
2018-12-02T02:13:41.943Z,18.04
2018-12-02T02:14:41.981Z,18.03
2018-12-02T02:15:42.046Z,18.03
2018-12-02T02:16:42.405Z,18.02
2018-12-02T02:17:42.311Z,18.03
2018-12-02T02:18:42.220Z,18.03
2018-12-02T02:19:41.867Z,18.03
2018-12-02T02:20:41.849Z,18.03
2018-12-02T02:21:41.865Z,18.03
2018-12-02T02:22:42.058Z,18.03
2018-12-02T02:23:42.329Z,18.02
2018-12-02T02:24:42.144Z,18.02
2018-12-02T02:25:41.985Z,18.02
2018-12-02T02:26:42.073Z,18.02
2018-12-02T02:27:42.346Z,18.01
2018-12-02T02:28:41.965Z,18.01
2018-12-02T02:29:41.887Z,18.01
2018-12-02T02:30:41.854Z,18.01
2018-12-02T02:31:42.264Z,18.01
2018-12-02T02:32:42.022Z,18
2018-12-02T02:33:42.010Z,18
2018-12-02T02:34:42.535Z,18
2018-12-02T02:35:41.880Z,18
2018-12-02T02:36:42.254Z,17.99
2018-12-02T02:37:41.822Z,17.98
2018-12-02T02:38:41.868Z,17.98
2018-12-02T02:39:42.045Z,17.98
2018-12-02T02:40:41.888Z,17.98
2018-12-02T02:41:42.050Z,17.98
2018-12-02T02:42:41.921Z,17.98
2018-12-02T02:43:41.972Z,17.98
2018-12-02T02:44:41.856Z,17.98
2018-12-02T02:45:42.027Z,17.97
2018-12-02T02:46:41.843Z,17.98
2018-12-02T02:47:41.966Z,17.97
2018-12-02T02:48:41.807Z,17.98
2018-12-02T02:49:41.934Z,17.97
2018-12-02T02:50:42.072Z,17.97
2018-12-02T02:51:41.845Z,17.97
2018-12-02T02:52:42.234Z,17.95
2018-12-02T02:53:41.855Z,17.95
2018-12-02T02:54:41.879Z,17.94
2018-12-02T02:55:41.742Z,17.95
2018-12-02T02:56:41.782Z,17.95
2018-12-02T02:57:42.002Z,17.94
2018-12-02T02:58:41.972Z,17.94
2018-12-02T02:59:42.015Z,17.94
2018-12-02T03:00:41.816Z,17.94
2018-12-02T03:01:41.917Z,17.94
2018-12-02T03:02:41.764Z,17.94
2018-12-02T03:03:42.222Z,17.93
2018-12-02T03:04:42.115Z,17.93
2018-12-02T03:05:41.807Z,17.93
2018-12-02T03:06:42.325Z,17.94
2018-12-02T03:07:41.892Z,17.92
2018-12-02T03:08:42.903Z,17.92
2018-12-02T03:09:41.939Z,17.93
2018-12-02T03:10:42.269Z,17.92
2018-12-02T03:11:42.221Z,17.92
2018-12-02T03:12:42.295Z,17.92
2018-12-02T03:13:42.198Z,17.92
2018-12-02T03:14:42.862Z,17.92
2018-12-02T03:15:42.003Z,17.92
2018-12-02T03:16:41.919Z,17.91
2018-12-02T03:17:42.075Z,17.9
2018-12-02T03:18:42.028Z,17.89
2018-12-02T03:19:41.747Z,17.9
2018-12-02T03:20:41.630Z,17.9
2018-12-02T03:21:41.897Z,17.9
2018-12-02T03:22:42.148Z,17.9
2018-12-02T03:23:42.152Z,17.9
2018-12-02T03:24:42.603Z,17.89
2018-12-02T03:25:41.881Z,17.9
2018-12-02T03:26:41.806Z,17.89
2018-12-02T03:27:41.757Z,17.89
2018-12-02T03:28:42.089Z,17.88
2018-12-02T03:29:42.026Z,17.88
2018-12-02T03:30:42.211Z,17.88
2018-12-02T03:31:41.931Z,17.87
2018-12-02T03:32:42.150Z,17.88
2018-12-02T03:33:42.263Z,17.87
2018-12-02T03:34:41.766Z,17.87
2018-12-02T03:35:42.191Z,17.88
2018-12-02T03:36:41.752Z,17.88
2018-12-02T03:37:41.908Z,17.88
2018-12-02T03:38:42.200Z,17.87
2018-12-02T03:39:41.948Z,17.86
2018-12-02T03:40:42.017Z,17.86
2018-12-02T03:41:42.114Z,17.86
2018-12-02T03:42:42.361Z,17.86
2018-12-02T03:43:42.093Z,17.86
2018-12-02T03:44:41.931Z,17.86
2018-12-02T03:45:41.925Z,17.86
2018-12-02T03:46:42.010Z,17.86
2018-12-02T03:47:42.086Z,17.86
2018-12-02T03:48:41.790Z,17.86
2018-12-02T03:49:42.231Z,17.86
2018-12-02T03:50:42.301Z,17.86
2018-12-02T03:51:42.262Z,17.86
2018-12-02T03:52:41.988Z,17.86
2018-12-02T03:53:41.895Z,17.86
2018-12-02T03:54:42.157Z,17.86
2018-12-02T03:55:41.770Z,17.86
2018-12-02T03:56:42.403Z,17.86
2018-12-02T03:57:41.891Z,17.86
2018-12-02T03:58:42.026Z,17.85
2018-12-02T03:59:41.757Z,17.85
2018-12-02T04:00:42.268Z,17.85
2018-12-02T04:01:42.193Z,17.84
2018-12-02T04:02:42.146Z,17.84
2018-12-02T04:03:42.362Z,17.83
2018-12-02T04:04:41.854Z,17.83
2018-12-02T04:05:42.142Z,17.82
2018-12-02T04:06:42.038Z,17.83
2018-12-02T04:07:42.012Z,17.83
2018-12-02T04:08:41.775Z,17.82
2018-12-02T04:09:42.649Z,17.82
2018-12-02T04:10:41.739Z,17.82
2018-12-02T04:11:42.011Z,17.81
2018-12-02T04:12:42.298Z,17.82
2018-12-02T04:13:42.409Z,17.82
2018-12-02T04:14:42.307Z,17.82
2018-12-02T04:15:42.128Z,17.82
2018-12-02T04:16:42.012Z,17.81
2018-12-02T04:17:41.851Z,17.81
2018-12-02T04:18:41.665Z,17.8
2018-12-02T04:19:42.362Z,17.8
2018-12-02T04:20:42.159Z,17.8
2018-12-02T04:21:41.949Z,17.81
2018-12-02T04:22:41.782Z,17.8
2018-12-02T04:23:41.870Z,17.79
2018-12-02T04:24:42.839Z,17.8
2018-12-02T04:25:42.094Z,17.8
2018-12-02T04:26:41.735Z,17.8
2018-12-02T04:27:41.738Z,17.79
2018-12-02T04:28:41.947Z,17.79
2018-12-02T04:29:42.132Z,17.79
2018-12-02T04:30:41.913Z,17.79
2018-12-02T04:31:41.930Z,17.79
2018-12-02T04:32:41.913Z,17.78
2018-12-02T04:33:41.788Z,17.79
2018-12-02T04:34:41.813Z,17.78
2018-12-02T04:35:41.950Z,17.79
2018-12-02T04:36:41.757Z,17.79
2018-12-02T04:37:41.892Z,17.79
2018-12-02T04:38:41.874Z,17.79
2018-12-02T04:39:41.928Z,17.79
2018-12-02T04:40:41.851Z,17.79
2018-12-02T04:41:41.966Z,17.79
2018-12-02T04:42:41.684Z,17.8
2018-12-02T04:43:41.893Z,17.79
2018-12-02T04:44:42.065Z,17.8
2018-12-02T04:45:41.725Z,17.81
2018-12-02T04:46:42.234Z,17.82
2018-12-02T04:47:41.824Z,17.83
2018-12-02T04:48:42.235Z,17.83
2018-12-02T04:49:41.967Z,17.85
2018-12-02T04:50:42.163Z,17.86
2018-12-02T04:51:41.793Z,17.86
2018-12-02T04:52:42.311Z,17.87
2018-12-02T04:53:41.962Z,17.88
2018-12-02T04:54:41.846Z,17.89
2018-12-02T04:55:41.998Z,17.9
2018-12-02T04:56:41.738Z,17.91
2018-12-02T04:57:41.876Z,17.92
2018-12-02T04:58:41.753Z,17.93
2018-12-02T04:59:41.805Z,17.94
2018-12-02T05:00:42.063Z,17.96
2018-12-02T05:01:41.875Z,17.98
2018-12-02T05:02:42.539Z,17.99
2018-12-02T05:03:41.951Z,18.01
2018-12-02T05:04:42.331Z,18.04
2018-12-02T05:05:41.848Z,18.04
2018-12-02T05:06:41.962Z,18.06
2018-12-02T05:07:42.126Z,18.08
2018-12-02T05:08:42.088Z,18.1
2018-12-02T05:09:42.033Z,18.11
2018-12-02T05:10:41.857Z,18.12
2018-12-02T05:11:41.972Z,18.14
2018-12-02T05:12:43.279Z,18.17
2018-12-02T05:13:41.926Z,18.17
2018-12-02T05:14:41.695Z,18.19
2018-12-02T05:15:41.872Z,18.2
2018-12-02T05:16:42.077Z,18.22
2018-12-02T05:17:41.842Z,18.23
2018-12-02T05:18:42.266Z,18.25
2018-12-02T05:19:41.887Z,18.26
2018-12-02T05:20:41.976Z,18.27
2018-12-02T05:21:42.060Z,18.29
2018-12-02T05:22:41.887Z,18.3
2018-12-02T05:23:41.771Z,18.31
2018-12-02T05:24:41.889Z,18.33
2018-12-02T05:25:42.248Z,18.35
2018-12-02T05:26:41.722Z,18.35
2018-12-02T05:27:43.143Z,18.36
2018-12-02T05:28:41.724Z,18.38
2018-12-02T05:29:41.953Z,18.39
2018-12-02T05:30:41.743Z,18.41
2018-12-02T05:31:42.258Z,18.41
2018-12-02T05:32:42.134Z,18.43
2018-12-02T05:33:42.257Z,18.45
2018-12-02T05:34:41.965Z,18.46
2018-12-02T05:35:41.837Z,18.47
2018-12-02T05:36:42.088Z,18.48
2018-12-02T05:37:41.712Z,18.49
2018-12-02T05:38:41.961Z,18.51
2018-12-02T05:39:41.698Z,18.53
2018-12-02T05:40:42.022Z,18.54
2018-12-02T05:41:42.077Z,18.54
2018-12-02T05:42:41.756Z,18.56
2018-12-02T05:43:42.088Z,18.57
2018-12-02T05:44:42.368Z,18.58
2018-12-02T05:45:42.152Z,18.6
2018-12-02T05:46:41.878Z,18.6
2018-12-02T05:47:41.878Z,18.61
2018-12-02T05:48:41.779Z,18.63
2018-12-02T05:49:41.719Z,18.64
2018-12-02T05:50:42.404Z,18.64
2018-12-02T05:51:41.838Z,18.65
2018-12-02T05:52:41.867Z,18.66
2018-12-02T05:53:41.831Z,18.67
2018-12-02T05:54:42.230Z,18.68
2018-12-02T05:55:41.842Z,18.68
2018-12-02T05:56:41.834Z,18.69
2018-12-02T05:57:41.669Z,18.7
2018-12-02T05:58:41.676Z,18.7
2018-12-02T05:59:41.954Z,18.71
2018-12-02T06:00:41.812Z,18.71
2018-12-02T06:01:41.948Z,18.72
2018-12-02T06:02:41.821Z,18.72
2018-12-02T06:03:41.939Z,18.73
2018-12-02T06:04:41.795Z,18.73
2018-12-02T06:05:41.866Z,18.75
2018-12-02T06:06:41.723Z,18.75
2018-12-02T06:07:41.838Z,18.76
2018-12-02T06:08:42.330Z,18.76
2018-12-02T06:09:41.748Z,18.78
2018-12-02T06:10:41.867Z,18.78
2018-12-02T06:11:44.044Z,18.78
2018-12-02T06:12:41.913Z,18.79
2018-12-02T06:13:41.941Z,18.79
2018-12-02T06:14:41.873Z,18.8
2018-12-02T06:15:41.959Z,18.81
2018-12-02T06:16:41.668Z,18.82
2018-12-02T06:17:41.879Z,18.82
2018-12-02T06:18:41.834Z,18.83
2018-12-02T06:19:41.920Z,18.84
2018-12-02T06:20:42.029Z,18.84
2018-12-02T06:21:42.191Z,18.84
2018-12-02T06:22:41.670Z,18.85
2018-12-02T06:23:41.750Z,18.85
2018-12-02T06:24:41.893Z,18.85
2018-12-02T06:25:46.800Z,18.87
2018-12-02T06:26:42.029Z,18.86
2018-12-02T06:27:41.766Z,18.88
2018-12-02T06:28:41.823Z,18.89
2018-12-02T06:29:42.054Z,18.88
2018-12-02T06:30:41.813Z,18.89
2018-12-02T06:31:42.114Z,18.9
2018-12-02T06:32:41.702Z,18.9
2018-12-02T06:33:42.197Z,18.9
2018-12-02T06:34:42.139Z,18.91
2018-12-02T06:35:41.915Z,18.91
2018-12-02T06:36:41.931Z,18.92
2018-12-02T06:37:41.943Z,18.92
2018-12-02T06:38:41.896Z,18.93
2018-12-02T06:39:41.736Z,18.94
2018-12-02T06:40:42.114Z,18.95
2018-12-02T06:41:41.826Z,18.96
2018-12-02T06:42:41.957Z,18.96
2018-12-02T06:43:41.683Z,18.97
2018-12-02T06:44:41.968Z,18.97
2018-12-02T06:45:41.802Z,18.97
2018-12-02T06:46:41.822Z,18.98
2018-12-02T06:47:41.773Z,18.98
2018-12-02T06:48:41.986Z,18.99
2018-12-02T06:49:41.948Z,19
2018-12-02T06:50:41.884Z,19
2018-12-02T06:51:42.103Z,19
2018-12-02T06:52:42.306Z,19.01
2018-12-02T06:53:41.896Z,19.01
2018-12-02T06:54:41.676Z,19.02
2018-12-02T06:55:42.174Z,19.02
2018-12-02T06:56:42.134Z,19.02
2018-12-02T06:57:41.753Z,19.02
2018-12-02T06:58:42.160Z,19.03
2018-12-02T06:59:41.829Z,19.03
2018-12-02T07:00:42.089Z,19.03
2018-12-02T07:01:41.932Z,19.03
2018-12-02T07:02:42.155Z,19.03
2018-12-02T07:03:41.910Z,19.03
2018-12-02T07:04:41.745Z,19.03
2018-12-02T07:05:41.895Z,19.03
2018-12-02T07:06:41.784Z,19.04
2018-12-02T07:07:41.822Z,19.05
2018-12-02T07:08:41.723Z,19.05
2018-12-02T07:09:41.836Z,19.05
2018-12-02T07:10:41.963Z,19.05
2018-12-02T07:11:41.780Z,19.06
2018-12-02T07:12:41.635Z,19.06
2018-12-02T07:13:41.799Z,19.06
2018-12-02T07:14:42.197Z,19.07
2018-12-02T07:15:41.709Z,19.07
2018-12-02T07:16:42.024Z,19.07
2018-12-02T07:17:41.762Z,19.08
2018-12-02T07:18:42.084Z,19.08
2018-12-02T07:19:41.733Z,19.09
2018-12-02T07:20:42.756Z,19.09
2018-12-02T07:21:42.327Z,19.09
2018-12-02T07:22:41.942Z,19.1
2018-12-02T07:23:42.178Z,19.1
2018-12-02T07:24:41.737Z,19.1
2018-12-02T07:25:42.148Z,19.1
2018-12-02T07:26:42.009Z,19.1
2018-12-02T07:27:41.764Z,19.11
2018-12-02T07:28:41.971Z,19.12
2018-12-02T07:29:41.729Z,19.12
2018-12-02T07:30:41.946Z,19.12
2018-12-02T07:31:41.750Z,19.13
2018-12-02T07:32:41.938Z,19.13
2018-12-02T07:33:42.114Z,19.13
2018-12-02T07:34:42.744Z,19.14
2018-12-02T07:35:41.938Z,19.14
2018-12-02T07:36:41.722Z,19.15
2018-12-02T07:37:41.592Z,19.15
2018-12-02T07:38:41.832Z,19.15
2018-12-02T07:39:41.758Z,19.15
2018-12-02T07:40:41.662Z,19.15
2018-12-02T07:41:41.891Z,19.15
2018-12-02T07:42:41.759Z,19.16
2018-12-02T07:43:41.748Z,19.16
2018-12-02T07:44:42.304Z,19.17
2018-12-02T07:45:41.823Z,19.17
2018-12-02T07:46:41.662Z,19.18
2018-12-02T07:47:41.795Z,19.18
2018-12-02T07:48:41.853Z,19.18
2018-12-02T07:49:41.722Z,19.19
2018-12-02T07:50:41.956Z,19.19
2018-12-02T07:51:41.758Z,19.2
2018-12-02T07:52:41.852Z,19.2
2018-12-02T07:53:41.925Z,19.19
2018-12-02T07:54:41.700Z,19.2
2018-12-02T07:55:41.855Z,19.21
2018-12-02T07:56:41.717Z,19.21
2018-12-02T07:57:41.767Z,19.21
2018-12-02T07:58:41.933Z,19.21
2018-12-02T07:59:41.825Z,19.21
2018-12-02T08:00:41.824Z,19.21
2018-12-02T08:01:41.794Z,19.21
2018-12-02T08:02:42.061Z,19.21
2018-12-02T08:03:41.714Z,19.21
2018-12-02T08:04:42.053Z,19.21
2018-12-02T08:05:42.282Z,19.21
2018-12-02T08:06:41.731Z,19.22
2018-12-02T08:07:42.172Z,19.22
2018-12-02T08:08:41.705Z,19.22
2018-12-02T08:09:42.198Z,19.23
2018-12-02T08:10:41.751Z,19.23
2018-12-02T08:11:41.873Z,19.22
2018-12-02T08:12:41.939Z,19.23
2018-12-02T08:13:41.703Z,19.24
2018-12-02T08:14:41.997Z,19.24
2018-12-02T08:15:41.704Z,19.25
2018-12-02T08:16:42.064Z,19.25
2018-12-02T08:17:41.739Z,19.25
2018-12-02T08:18:42.052Z,19.26
2018-12-02T08:19:41.782Z,19.26
2018-12-02T08:20:41.834Z,19.26
2018-12-02T08:21:41.734Z,19.27
2018-12-02T08:22:41.611Z,19.27
2018-12-02T08:23:42.079Z,19.27
2018-12-02T08:24:41.635Z,19.27
2018-12-02T08:25:41.789Z,19.27
2018-12-02T08:26:41.676Z,19.27
2018-12-02T08:27:41.749Z,19.27
2018-12-02T08:28:41.910Z,19.27
2018-12-02T08:29:41.707Z,19.27
2018-12-02T08:30:42.222Z,19.27
2018-12-02T08:31:42.102Z,19.27
2018-12-02T08:32:41.933Z,19.27
2018-12-02T08:33:41.775Z,19.28
2018-12-02T08:34:42.093Z,19.27
2018-12-02T08:35:41.877Z,19.28
2018-12-02T08:36:41.885Z,19.29
2018-12-02T08:37:42.278Z,19.29
2018-12-02T08:38:41.793Z,19.28
2018-12-02T08:39:42.082Z,19.29
2018-12-02T08:40:41.639Z,19.29
2018-12-02T08:41:42.088Z,19.3
2018-12-02T08:42:42.030Z,19.29
2018-12-02T08:43:42.208Z,19.3
2018-12-02T08:44:42.164Z,19.3
2018-12-02T08:45:42.132Z,19.3
2018-12-02T08:46:41.785Z,19.3
2018-12-02T08:47:41.810Z,19.31
2018-12-02T08:48:42.124Z,19.33
2018-12-02T08:49:43.574Z,19.31
2018-12-02T08:50:41.928Z,19.3
2018-12-02T08:51:41.945Z,19.28
2018-12-02T08:52:41.756Z,19.28
2018-12-02T08:53:41.954Z,19.32
2018-12-02T08:54:41.842Z,19.33
2018-12-02T08:55:42.191Z,19.36
2018-12-02T08:56:41.867Z,19.36
2018-12-02T08:57:41.750Z,19.37
2018-12-02T08:58:41.734Z,19.39
2018-12-02T08:59:42.012Z,19.39
2018-12-02T09:00:41.929Z,19.4
2018-12-02T09:01:41.663Z,19.41
2018-12-02T09:02:41.899Z,19.42
2018-12-02T09:03:42.083Z,19.43
2018-12-02T09:04:42.152Z,19.45
2018-12-02T09:05:42.085Z,19.45
2018-12-02T09:06:41.805Z,19.45
2018-12-02T09:07:42.234Z,19.46
2018-12-02T09:08:41.986Z,19.47
2018-12-02T09:09:42.092Z,19.48
2018-12-02T09:10:41.718Z,19.49
2018-12-02T09:11:41.987Z,19.5
2018-12-02T09:12:41.657Z,19.5
2018-12-02T09:13:41.751Z,19.48
2018-12-02T09:14:41.827Z,19.51
2018-12-02T09:15:42.601Z,19.52
2018-12-02T09:16:42.060Z,19.55
2018-12-02T09:17:41.702Z,19.56
2018-12-02T09:18:41.907Z,19.57
2018-12-02T09:19:41.746Z,19.59
2018-12-02T09:20:41.807Z,19.6
2018-12-02T09:21:41.761Z,19.61
2018-12-02T09:22:41.669Z,19.62
2018-12-02T09:23:47.872Z,19.63
2018-12-02T09:24:41.671Z,19.63
2018-12-02T09:25:41.790Z,19.63
2018-12-02T09:26:41.778Z,19.64
2018-12-02T09:27:41.942Z,19.67
2018-12-02T09:28:41.843Z,19.67
2018-12-02T09:29:41.731Z,19.68
2018-12-02T09:30:41.894Z,19.69
2018-12-02T09:31:41.818Z,19.69
2018-12-02T09:32:41.747Z,19.68
2018-12-02T09:33:41.678Z,19.69
2018-12-02T09:34:41.667Z,19.69
2018-12-02T09:35:41.781Z,19.68
2018-12-02T09:36:41.957Z,19.68
2018-12-02T09:37:41.782Z,19.68
2018-12-02T09:38:42.512Z,19.69
2018-12-02T09:39:41.745Z,19.69
2018-12-02T09:40:41.579Z,19.7
2018-12-02T09:41:41.816Z,19.69
2018-12-02T09:42:41.938Z,19.69
2018-12-02T09:43:41.761Z,19.69
2018-12-02T09:44:42.172Z,19.69
2018-12-02T09:45:42.240Z,19.69
2018-12-02T09:46:41.769Z,19.69
2018-12-02T09:47:41.803Z,19.69
2018-12-02T09:48:42.216Z,19.69
2018-12-02T09:49:41.715Z,19.69
2018-12-02T09:50:42.025Z,19.69
2018-12-02T09:51:41.570Z,19.69
2018-12-02T09:52:42.158Z,19.68
2018-12-02T09:53:41.898Z,19.67
2018-12-02T09:54:41.682Z,19.66
2018-12-02T09:55:42.201Z,19.66
2018-12-02T09:56:42.048Z,19.65
2018-12-02T09:57:42.109Z,19.67
2018-12-02T09:58:41.828Z,19.66
2018-12-02T09:59:41.840Z,19.64
2018-12-02T10:00:41.950Z,19.64
2018-12-02T10:01:41.664Z,19.63
2018-12-02T10:02:41.864Z,19.63
2018-12-02T10:03:41.706Z,19.64
2018-12-02T10:04:41.802Z,19.62
2018-12-02T10:05:42.521Z,19.59
2018-12-02T10:06:42.873Z,19.59
2018-12-02T10:07:41.720Z,19.57
2018-12-02T10:08:41.734Z,19.57
2018-12-02T10:09:42.297Z,19.54
2018-12-02T10:10:41.757Z,19.57
2018-12-02T10:11:41.744Z,19.57
2018-12-02T10:12:45.002Z,19.59
2018-12-02T10:13:41.944Z,19.59
2018-12-02T10:14:41.854Z,19.59
2018-12-02T10:15:42.077Z,19.59
2018-12-02T10:16:41.724Z,19.6
2018-12-02T10:17:41.830Z,19.6
2018-12-02T10:18:41.662Z,19.61
2018-12-02T10:19:41.897Z,19.62
2018-12-02T10:20:41.719Z,19.61
2018-12-02T10:21:42.128Z,19.62
2018-12-02T10:22:41.773Z,19.64
2018-12-02T10:23:42.368Z,19.64
2018-12-02T10:24:41.831Z,19.65
2018-12-02T10:25:41.681Z,19.65
2018-12-02T10:26:41.757Z,19.65
2018-12-02T10:27:41.816Z,19.67
2018-12-02T10:28:43.055Z,19.68
2018-12-02T10:29:41.892Z,19.67
2018-12-02T10:30:41.863Z,19.68
2018-12-02T10:31:42.064Z,19.68
2018-12-02T10:32:43.004Z,19.69
2018-12-02T10:33:41.838Z,19.69
2018-12-02T10:34:42.375Z,19.69
2018-12-02T10:35:42.078Z,19.69
2018-12-02T10:36:42.715Z,19.7
2018-12-02T10:37:41.836Z,19.72
2018-12-02T10:38:41.977Z,19.71
2018-12-02T10:39:41.658Z,19.72
2018-12-02T10:40:42.187Z,19.73
2018-12-02T10:41:41.649Z,19.73
2018-12-02T10:42:42.000Z,19.74
2018-12-02T10:43:41.893Z,19.75
2018-12-02T10:44:41.838Z,19.75
2018-12-02T10:45:41.848Z,19.75
2018-12-02T10:46:44.524Z,19.75
2018-12-02T10:47:41.765Z,19.77
2018-12-02T10:48:42.121Z,19.77
2018-12-02T10:49:41.777Z,19.77
2018-12-02T10:50:41.837Z,19.76
2018-12-02T10:51:41.674Z,19.76
2018-12-02T10:52:41.783Z,19.77
2018-12-02T10:53:42.181Z,19.77
2018-12-02T10:54:41.827Z,19.75
2018-12-02T10:55:41.710Z,19.75
2018-12-02T10:56:41.713Z,19.75
2018-12-02T10:57:41.812Z,19.75
2018-12-02T10:58:41.740Z,19.75
2018-12-02T10:59:41.851Z,19.77
2018-12-02T11:00:41.743Z,19.77
2018-12-02T11:01:42.362Z,19.78
2018-12-02T11:02:42.034Z,19.81
2018-12-02T11:03:42.870Z,19.8
2018-12-02T11:04:42.727Z,19.79
2018-12-02T11:05:43.879Z,19.79
2018-12-02T11:06:43.082Z,19.79
2018-12-02T11:07:43.149Z,19.8
2018-12-02T11:08:43.018Z,19.8
2018-12-02T11:09:43.546Z,19.79
2018-12-02T11:10:42.477Z,19.8
2018-12-02T11:11:42.586Z,19.8
2018-12-02T11:12:43.663Z,19.81
2018-12-02T11:13:42.700Z,19.81
2018-12-02T11:14:42.275Z,19.82
2018-12-02T11:15:41.880Z,19.82
2018-12-02T11:16:45.042Z,19.82
2018-12-02T11:17:43.091Z,19.82
2018-12-02T11:18:42.359Z,19.83
2018-12-02T11:19:42.701Z,19.84
2018-12-02T11:20:42.895Z,19.86
2018-12-02T11:21:41.996Z,19.88
2018-12-02T11:22:42.427Z,19.91
2018-12-02T11:23:43.363Z,19.91
2018-12-02T11:24:42.429Z,19.9
2018-12-02T11:25:41.938Z,19.91
2018-12-02T11:26:42.222Z,19.91
2018-12-02T11:27:41.967Z,19.91
2018-12-02T11:28:42.067Z,19.95
2018-12-02T11:29:43.065Z,19.98
2018-12-02T11:30:41.802Z,20.02
2018-12-02T11:31:41.649Z,20
2018-12-02T11:32:41.795Z,19.97
2018-12-02T11:33:41.795Z,19.97
2018-12-02T11:34:41.612Z,19.96
2018-12-02T11:35:41.773Z,19.97
2018-12-02T11:36:41.819Z,19.98
2018-12-02T11:37:41.710Z,19.97
2018-12-02T11:38:41.622Z,19.97
2018-12-02T11:39:41.936Z,19.96
2018-12-02T11:40:41.955Z,19.96
2018-12-02T11:41:41.727Z,19.97
2018-12-02T11:42:41.760Z,19.97
2018-12-02T11:43:41.960Z,19.97
2018-12-02T11:44:41.859Z,19.97
2018-12-02T11:45:41.999Z,19.97
2018-12-02T11:46:41.831Z,19.97
2018-12-02T11:47:41.584Z,19.97
2018-12-02T11:48:42.759Z,19.97
2018-12-02T11:49:42.457Z,19.96
2018-12-02T11:50:41.962Z,19.97
2018-12-02T11:51:41.999Z,19.98
2018-12-02T11:52:42.307Z,19.98
2018-12-02T11:53:42.096Z,19.99
2018-12-02T11:54:41.812Z,19.97
2018-12-02T11:55:42.121Z,19.97
2018-12-02T11:56:41.677Z,19.97
2018-12-02T11:57:41.713Z,19.97
2018-12-02T11:58:41.713Z,19.98
2018-12-02T11:59:41.840Z,19.98
2018-12-02T12:00:41.873Z,19.98
2018-12-02T12:01:41.734Z,19.97
2018-12-02T12:02:41.843Z,19.97
2018-12-02T12:03:41.549Z,19.98
2018-12-02T12:04:41.775Z,19.97
2018-12-02T12:05:41.745Z,19.97
2018-12-02T12:06:42.057Z,20
2018-12-02T12:07:42.100Z,19.98
2018-12-02T12:08:42.055Z,19.95
2018-12-02T12:09:41.938Z,19.95
2018-12-02T12:10:42.281Z,19.94
2018-12-02T12:11:41.604Z,19.93
2018-12-02T12:12:41.721Z,19.93
2018-12-02T12:13:41.729Z,19.92
2018-12-02T12:14:41.898Z,19.91
2018-12-02T12:15:41.757Z,19.91
2018-12-02T12:16:41.967Z,19.91
2018-12-02T12:17:41.985Z,19.89
2018-12-02T12:18:41.863Z,19.89
2018-12-02T12:19:42.323Z,19.89
2018-12-02T12:20:42.507Z,19.88
2018-12-02T12:21:41.550Z,19.88
2018-12-02T12:22:42.965Z,19.88
2018-12-02T12:23:41.644Z,19.87
2018-12-02T12:24:41.839Z,19.87
2018-12-02T12:25:41.722Z,19.87
2018-12-02T12:26:41.818Z,19.87
2018-12-02T12:27:41.742Z,19.85
2018-12-02T12:28:42.068Z,19.85
2018-12-02T12:29:41.864Z,19.84
2018-12-02T12:30:41.835Z,19.85
2018-12-02T12:31:41.724Z,19.84
2018-12-02T12:32:42.093Z,19.84
2018-12-02T12:33:41.860Z,19.83
2018-12-02T12:34:41.535Z,19.83
2018-12-02T12:35:41.778Z,19.83
2018-12-02T12:36:42.490Z,19.82
2018-12-02T12:37:41.720Z,19.82
2018-12-02T12:38:41.623Z,19.81
2018-12-02T12:39:41.698Z,19.81
2018-12-02T12:40:41.667Z,19.81
2018-12-02T12:41:41.636Z,19.8
2018-12-02T12:42:41.655Z,19.8
2018-12-02T12:43:41.730Z,19.8
2018-12-02T12:44:41.717Z,19.79
2018-12-02T12:45:41.744Z,19.77
2018-12-02T12:46:41.841Z,19.76
2018-12-02T12:47:41.831Z,19.75
2018-12-02T12:48:41.966Z,19.75
2018-12-02T12:49:41.804Z,19.75
2018-12-02T12:50:42.206Z,19.74
2018-12-02T12:51:41.676Z,19.73
2018-12-02T12:52:41.678Z,19.73
2018-12-02T12:53:41.733Z,19.72
2018-12-02T12:54:41.544Z,19.72
2018-12-02T12:55:42.068Z,19.71